Time;durP1;ratioP1;P1;durP2;ratioP2;P2;SDS_P1;SDS_P2;PMS_P1;PMS_P2;Temp;Humidity;BMP_temperature;BMP_pressure;BME280_temperature;BME280_humidity;BME280_pressure;Samples;Min_cycle;Max_cycle;Signal;HPM_P1;HPM_P2
2022/04/15 00:02:12;;;;;;;10.60;5.68;;;24.00;36.60;;;;;;6131531;28;80458;-63
2022/04/15 00:08:46;;;;;;;10.07;5.68;;;24.00;36.40;;;;;;6129203;28;80397;-63
2022/04/15 00:11:47;;;;;;;9.27;5.50;;;24.00;36.20;;;;;;6137182;28;80961;-63
2022/04/15 00:14:47;;;;;;;8.43;5.25;;;23.90;36.00;;;;;;6122336;28;80548;-63
2022/04/15 00:17:48;;;;;;;8.43;4.93;;;23.90;35.90;;;;;;6135787;28;81131;-63
2022/04/15 00:20:48;;;;;;;8.95;5.18;;;23.90;36.50;;;;;;6114527;28;80780;-64
2022/04/15 00:23:54;;;;;;;11.52;5.45;;;23.90;35.90;;;;;;6112544;28;81428;-63
2022/04/15 00:26:54;;;;;;;8.85;4.85;;;23.90;35.70;;;;;;6113011;28;80398;-64
2022/04/15 00:29:55;;;;;;;9.32;5.40;;;23.90;35.80;;;;;;6125778;28;81582;-64
2022/04/15 00:32:55;;;;;;;8.05;5.15;;;23.90;35.70;;;;;;6136694;28;80869;-64
2022/04/15 00:35:56;;;;;;;8.68;5.38;;;23.90;35.70;;;;;;6136698;28;82000;-64
2022/04/15 00:38:57;;;;;;;8.48;5.28;;;23.90;35.60;;;;;;6131207;28;80547;-64
2022/04/15 00:41:57;;;;;;;14.25;6.07;;;23.90;35.50;;;;;;6112556;28;80791;-64
2022/04/15 00:44:58;;;;;;;7.47;4.80;;;23.90;35.40;;;;;;6112465;28;80671;-64
2022/04/15 00:47:58;;;;;;;10.73;5.70;;;23.90;35.20;;;;;;6112143;28;80499;-64
2022/04/15 00:50:59;;;;;;;9.25;5.40;;;23.90;35.30;;;;;;6112627;28;81696;-64
2022/04/15 00:54:00;;;;;;;12.80;5.35;;;23.90;35.40;;;;;;6114487;28;80488;-64
2022/04/15 00:57:00;;;;;;;7.65;4.65;;;23.90;35.30;;;;;;6135280;28;83575;-64
2022/04/15 01:00:01;;;;;;;8.80;5.20;;;23.90;36.00;;;;;;6135924;28;80682;-64
2022/04/15 01:03:01;;;;;;;8.43;4.97;;;23.90;35.90;;;;;;6136637;28;80455;-64
2022/04/15 01:06:02;;;;;;;7.15;4.03;;;23.80;35.40;;;;;;6119649;28;81069;-65
2022/04/15 01:09:03;;;;;;;9.75;5.15;;;23.90;36.50;;;;;;6121362;28;81481;-64
2022/04/15 01:12:03;;;;;;;8.38;3.97;;;23.90;36.00;;;;;;6119184;28;81989;-64
2022/04/15 01:15:04;;;;;;;7.25;3.67;;;23.80;36.30;;;;;;6136554;28;80605;-64
2022/04/15 01:18:04;;;;;;;4.43;3.10;;;23.80;36.90;;;;;;6135694;28;81216;-64
2022/04/15 01:21:05;;;;;;;8.30;4.32;;;23.80;37.30;;;;;;6135362;28;82154;-64
2022/04/15 01:24:05;;;;;;;6.97;3.78;;;23.80;36.70;;;;;;6136102;28;80705;-64
2022/04/15 01:27:06;;;;;;;8.48;3.63;;;23.90;36.90;;;;;;6113909;28;80450;-64
2022/04/15 01:30:06;;;;;;;6.35;3.72;;;23.80;37.10;;;;;;6111679;28;81436;-64
2022/04/15 01:33:07;;;;;;;5.38;3.33;;;23.90;37.30;;;;;;6111520;28;80315;-64
2022/04/15 01:36:07;;;;;;;6.80;4.10;;;23.90;37.10;;;;;;6111604;28;80698;-63
2022/04/15 01:39:10;;;;;;;5.38;3.85;;;23.80;37.30;;;;;;6111863;28;81211;-63
2022/04/15 01:42:10;;;;;;;5.38;3.67;;;23.90;37.00;;;;;;6130678;28;80279;-63
2022/04/15 01:45:11;;;;;;;6.57;3.53;;;23.80;37.10;;;;;;6135161;28;82141;-65
2022/04/15 01:48:12;;;;;;;8.13;4.18;;;23.80;37.20;;;;;;6135310;28;80502;-63
2022/04/15 01:51:12;;;;;;;5.95;3.60;;;23.80;36.80;;;;;;6135080;28;80410;-63
2022/04/15 01:54:13;;;;;;;4.93;3.35;;;23.80;37.70;;;;;;6135446;28;80572;-63
2022/04/15 01:57:13;;;;;;;7.25;4.03;;;23.80;36.70;;;;;;6134131;28;80572;-63
2022/04/15 02:00:14;;;;;;;10.05;4.40;;;23.80;37.00;;;;;;6134505;28;82045;-64
2022/04/15 02:03:14;;;;;;;8.02;4.53;;;23.80;36.50;;;;;;6134833;28;81411;-64
2022/04/15 02:06:15;;;;;;;8.38;4.22;;;23.80;36.30;;;;;;6129826;28;80336;-64
2022/04/15 02:09:15;;;;;;;5.95;4.15;;;23.80;36.30;;;;;;6133338;28;83212;-65
2022/04/15 02:12:16;;;;;;;9.63;4.88;;;23.80;36.20;;;;;;6135258;28;80467;-65
2022/04/15 02:15:17;;;;;;;8.32;4.32;;;23.80;36.10;;;;;;6134811;28;80537;-64
2022/04/15 02:18:17;;;;;;;8.93;4.78;;;23.70;35.60;;;;;;6134203;28;80629;-64
2022/04/15 02:21:18;;;;;;;7.63;4.47;;;23.80;36.30;;;;;;6127992;28;80800;-64
2022/04/15 02:24:19;;;;;;;6.65;4.00;;;23.80;36.60;;;;;;6122493;28;81060;-64
2022/04/15 02:27:19;;;;;;;8.20;4.78;;;23.80;36.70;;;;;;6134304;28;80335;-64
2022/04/15 02:30:20;;;;;;;7.05;3.70;;;23.80;36.70;;;;;;6133127;28;82274;-65
2022/04/15 02:33:20;;;;;;;7.43;4.60;;;23.80;36.50;;;;;;6113190;28;80372;-65
2022/04/15 02:36:21;;;;;;;5.65;3.70;;;23.80;36.20;;;;;;6114407;28;81429;-64
2022/04/15 02:39:22;;;;;;;9.30;5.25;;;23.80;36.40;;;;;;6132888;28;81070;-64
2022/04/15 02:42:22;;;;;;;7.70;4.57;;;23.80;36.30;;;;;;6133957;28;79995;-64
2022/04/15 02:45:23;;;;;;;8.32;4.93;;;23.80;36.30;;;;;;6134149;28;80561;-64
2022/04/15 02:48:23;;;;;;;6.80;3.92;;;23.80;36.80;;;;;;6115039;28;80695;-64
2022/04/15 02:51:24;;;;;;;5.57;4.07;;;23.80;36.90;;;;;;6116636;28;80576;-64
2022/04/15 02:54:24;;;;;;;6.10;3.60;;;23.80;37.40;;;;;;6110318;28;81636;-64
2022/04/15 02:57:25;;;;;;;8.82;4.65;;;23.80;37.90;;;;;;6101127;28;80585;-64
2022/04/15 03:00:25;;;;;;;7.30;4.30;;;23.80;37.40;;;;;;6108004;28;80203;-65
2022/04/15 03:03:26;;;;;;;8.07;4.63;;;23.80;37.70;;;;;;6134254;28;80105;-64
2022/04/15 03:06:26;;;;;;;5.90;3.90;;;23.80;36.90;;;;;;6131968;28;81787;-66
2022/04/15 03:09:27;;;;;;;12.02;5.45;;;23.80;37.40;;;;;;6122987;28;81075;-65
2022/04/15 03:12:27;;;;;;;9.40;5.72;;;23.80;36.70;;;;;;6130765;28;80425;-65
2022/04/15 03:15:28;;;;;;;12.43;6.13;;;23.80;36.30;;;;;;6114071;28;81760;-64
2022/04/15 03:18:29;;;;;;;9.07;6.20;;;23.80;36.50;;;;;;6128163;28;81512;-65
2022/04/15 03:21:29;;;;;;;7.80;5.28;;;23.80;36.50;;;;;;6138606;28;80423;-66
2022/04/15 03:24:30;;;;;;;12.10;6.20;;;23.90;36.80;;;;;;6137437;28;80007;-66
2022/04/15 03:27:30;;;;;;;10.57;6.07;;;23.90;37.00;;;;;;6137559;28;80636;-66
2022/04/15 03:30:31;;;;;;;11.23;6.38;;;23.80;37.10;;;;;;6137716;28;80293;-66
2022/04/15 03:33:32;;;;;;;8.65;5.43;;;23.90;37.20;;;;;;6133846;28;81058;-66
2022/04/15 03:36:33;;;;;;;10.73;6.05;;;23.90;37.40;;;;;;6137714;28;80348;-66
2022/04/15 03:39:35;;;;;;;11.18;5.90;;;23.90;37.50;;;;;;6117378;28;80347;-67
2022/04/15 03:42:36;;;;;;;10.82;6.55;;;23.90;37.70;;;;;;6113039;28;81396;-66
2022/04/15 03:45:36;;;;;;;13.48;6.40;;;24.00;37.90;;;;;;6113337;28;81411;-68
2022/04/15 03:48:37;;;;;;;12.15;6.15;;;24.00;38.30;;;;;;6130038;28;81032;-67
2022/04/15 03:51:37;;;;;;;12.88;6.55;;;24.00;38.50;;;;;;6137072;28;81597;-65
2022/04/15 03:54:38;;;;;;;16.25;6.63;;;24.00;38.60;;;;;;6136271;28;80492;-65
2022/04/15 03:57:38;;;;;;;12.32;6.63;;;24.00;38.90;;;;;;6135672;28;80790;-66
2022/04/15 04:00:39;;;;;;;12.48;6.95;;;24.00;38.80;;;;;;6123253;28;83370;-76
2022/04/15 04:03:39;;;;;;;13.25;6.63;;;24.10;38.80;;;;;;6128727;28;80865;-68
2022/04/15 04:06:40;;;;;;;10.50;6.43;;;24.10;39.00;;;;;;6132193;28;80447;-68
2022/04/15 04:09:41;;;;;;;14.13;7.70;;;24.10;39.10;;;;;;6121070;28;80916;-65
2022/04/15 04:12:41;;;;;;;13.18;6.38;;;24.10;39.20;;;;;;6111483;28;82356;-67
2022/04/15 04:15:41;;;;;;;13.50;7.50;;;24.10;39.40;;;;;;6113983;28;80694;-67
2022/04/15 04:18:42;;;;;;;25.92;7.55;;;24.10;39.50;;;;;;6136718;28;80395;-67
2022/04/15 04:21:43;;;;;;;10.00;6.60;;;24.20;39.60;;;;;;6135652;28;81762;-65
2022/04/15 04:24:43;;;;;;;14.85;7.50;;;24.10;39.50;;;;;;6136094;28;81620;-67
2022/04/15 04:27:44;;;;;;;10.65;6.68;;;24.10;39.60;;;;;;6137093;28;80393;-65
2022/04/15 04:30:44;;;;;;;16.15;8.15;;;24.20;39.70;;;;;;6136959;28;81790;-66
2022/04/15 04:33:45;;;;;;;15.65;9.30;;;24.20;39.70;;;;;;6121754;28;80507;-66
2022/04/15 04:36:45;;;;;;;18.92;7.97;;;24.20;40.10;;;;;;6126507;28;80459;-70
2022/04/15 04:39:46;;;;;;;16.45;7.82;;;24.10;40.10;;;;;;6136217;28;80561;-66
2022/04/15 04:42:46;;;;;;;13.32;8.13;;;24.20;40.00;;;;;;6136653;28;80430;-66
2022/04/15 04:45:47;;;;;;;15.27;8.35;;;24.20;40.40;;;;;;6136237;28;81166;-67
2022/04/15 04:48:47;;;;;;;14.50;8.43;;;24.20;40.50;;;;;;6135533;28;80400;-68
2022/04/15 04:51:48;;;;;;;13.20;8.00;;;24.20;40.40;;;;;;6136260;28;81160;-68
2022/04/15 04:54:48;;;;;;;13.13;7.70;;;24.20;40.40;;;;;;6136272;28;80426;-65
2022/04/15 04:57:49;;;;;;;14.98;8.30;;;24.20;40.50;;;;;;6135840;28;82162;-67
2022/04/15 05:00:49;;;;;;;17.05;9.10;;;24.20;40.90;;;;;;6129750;28;80750;-67
2022/04/15 05:03:50;;;;;;;17.65;7.95;;;24.30;41.40;;;;;;6132528;28;80188;-65
2022/04/15 05:06:51;;;;;;;13.30;7.70;;;24.30;41.70;;;;;;6134339;28;81510;-64
2022/04/15 05:09:53;;;;;;;15.15;7.82;;;24.30;41.80;;;;;;6119194;28;81677;-64
2022/04/15 05:12:53;;;;;;;13.43;7.85;;;24.30;42.50;;;;;;6135996;28;80317;-65
2022/04/15 05:15:54;;;;;;;17.35;7.95;;;24.30;42.80;;;;;;6135528;28;80699;-64
2022/04/15 05:18:54;;;;;;;16.83;8.48;;;24.40;43.20;;;;;;6136266;28;80388;-66
2022/04/15 05:21:55;;;;;;;11.80;7.53;;;24.40;43.20;;;;;;6135635;28;80822;-64
2022/04/15 05:24:55;;;;;;;15.80;7.88;;;24.40;43.40;;;;;;6136023;28;80765;-66
2022/04/15 05:27:58;;;;;;;13.70;8.18;;;24.40;43.40;;;;;;6117055;28;80913;-67
2022/04/15 05:30:58;;;;;;;14.52;7.85;;;24.40;43.20;;;;;;6134333;28;80532;-75
2022/04/15 05:34:00;;;;;;;13.95;8.10;;;24.40;43.30;;;;;;6128390;28;80202;-69
2022/04/15 05:37:01;;;;;;;16.90;8.10;;;24.40;43.10;;;;;;6131838;28;81478;-67
2022/04/15 05:40:01;;;;;;;16.33;9.25;;;24.40;43.20;;;;;;6135305;28;80726;-65
2022/04/15 05:43:02;;;;;;;24.17;8.35;;;24.40;42.90;;;;;;6128327;28;83506;-66
2022/04/15 05:46:02;;;;;;;15.25;8.00;;;24.50;43.00;;;;;;6110839;28;80216;-69
2022/04/15 05:49:03;;;;;;;13.63;7.53;;;24.50;43.10;;;;;;6110823;28;81759;-66
2022/04/15 05:52:03;;;;;;;12.95;7.70;;;24.50;43.50;;;;;;6111070;28;80940;-68
2022/04/15 05:55:04;;;;;;;11.13;7.35;;;24.50;43.10;;;;;;6132394;28;80965;-68
2022/04/15 05:58:05;;;;;;;17.55;7.05;;;24.50;43.40;;;;;;6135114;28;80809;-66
2022/04/15 06:01:09;;;;;;;18.27;8.30;;;24.50;44.00;;;;;;6134697;28;81091;-67
2022/04/15 06:04:09;;;;;;;12.80;7.63;;;24.50;43.20;;;;;;6138350;28;85042;-65
2022/04/15 06:07:10;;;;;;;14.35;7.43;;;24.50;43.20;;;;;;6141677;28;81525;-66
2022/04/15 06:10:11;;;;;;;17.20;7.80;;;24.50;42.90;;;;;;6133132;28;80366;-66
2022/04/15 06:13:19;;;;;;;12.88;8.10;;;24.50;42.60;;;;;;6132655;28;80405;-67
2022/04/15 06:16:26;;;;;;;15.23;8.32;;;24.50;42.50;;;;;;6134470;28;80649;-69
2022/04/15 06:19:26;;;;;;;14.15;8.55;;;24.50;42.50;;;;;;6134811;28;81314;-70
2022/04/15 06:22:27;;;;;;;13.10;7.63;;;24.50;42.30;;;;;;6115901;28;80614;-72
2022/04/15 06:25:27;;;;;;;12.77;7.75;;;24.50;42.40;;;;;;6110747;28;81486;-72
2022/04/15 06:28:28;;;;;;;13.38;7.50;;;24.50;42.30;;;;;;6116897;28;81213;-71
2022/04/15 06:31:28;;;;;;;13.27;8.07;;;24.50;42.20;;;;;;6120009;28;81697;-74
2022/04/15 06:34:29;;;;;;;16.73;7.43;;;24.50;42.20;;;;;;6110911;28;81591;-74
2022/04/15 06:37:29;;;;;;;11.95;7.13;;;24.50;42.20;;;;;;6126236;28;80757;-69
2022/04/15 06:40:30;;;;;;;13.73;7.70;;;24.40;42.30;;;;;;6124757;28;81888;-69
2022/04/15 06:43:30;;;;;;;11.25;6.90;;;24.50;42.40;;;;;;6110895;28;80182;-68
2022/04/15 06:46:31;;;;;;;11.73;7.43;;;24.50;42.60;;;;;;6110170;28;80565;-68
2022/04/15 06:49:31;;;;;;;14.25;8.18;;;24.50;43.60;;;;;;6125141;28;81570;-70
2022/04/15 06:52:32;;;;;;;20.13;8.07;;;24.50;44.90;;;;;;6133463;28;81313;-68
2022/04/15 06:55:33;;;;;;;12.35;8.02;;;24.50;45.20;;;;;;6113251;28;83843;-73
2022/04/15 06:58:33;;;;;;;12.18;6.97;;;24.50;44.30;;;;;;6110304;28;80584;-72
2022/04/15 07:01:35;;;;;;;11.60;7.05;;;24.50;44.10;;;;;;6109819;28;80438;-74
2022/04/15 07:04:35;;;;;;;19.42;7.53;;;24.50;43.80;;;;;;6109768;28;80110;-71
2022/04/15 07:07:36;;;;;;;13.77;7.35;;;24.50;43.60;;;;;;6120582;28;80323;-74
2022/04/15 07:10:37;;;;;;;13.77;7.10;;;24.50;43.40;;;;;;6137534;28;80288;-75
2022/04/15 07:13:37;;;;;;;13.77;8.05;;;24.50;43.60;;;;;;6129226;28;80503;-72
2022/04/15 07:16:38;;;;;;;13.55;6.70;;;24.50;43.30;;;;;;6132219;28;80927;-68
2022/04/15 07:19:39;;;;;;;12.98;6.50;;;24.60;43.30;;;;;;6109797;28;80507;-75
2022/04/15 07:22:39;;;;;;;12.52;7.03;;;24.50;43.20;;;;;;6118678;28;80805;-69
2022/04/15 07:25:40;;;;;;;12.95;7.00;;;24.60;43.40;;;;;;6133773;28;79964;-78
2022/04/15 07:28:41;;;;;;;9.25;6.38;;;24.60;43.30;;;;;;6117173;28;80442;-75
2022/04/15 07:31:42;;;;;;;12.32;7.43;;;24.60;43.20;;;;;;6109762;28;80625;-70
2022/04/15 07:34:42;;;;;;;16.20;7.00;;;24.60;43.00;;;;;;6133085;28;80267;-68
2022/04/15 07:37:43;;;;;;;9.75;7.20;;;24.60;43.00;;;;;;6126040;28;80441;-68
2022/04/15 07:40:43;;;;;;;16.77;8.68;;;24.70;43.00;;;;;;6108837;28;80585;-67
2022/04/15 07:43:45;;;;;;;18.98;10.35;;;24.60;43.40;;;;;;6132318;28;83839;-70
2022/04/15 07:46:45;;;;;;;17.42;9.90;;;24.50;44.60;;;;;;6131097;28;83235;-69
2022/04/15 07:49:46;;;;;;;20.35;10.25;;;24.50;44.50;;;;;;6128754;28;82848;-70
2022/04/15 07:52:46;;;;;;;26.60;17.40;;;24.40;44.90;;;;;;6123830;28;82912;-68
2022/04/15 07:55:47;;;;;;;26.58;19.05;;;24.40;45.10;;;;;;6107376;28;82984;-69
2022/04/15 07:58:48;;;;;;;28.60;16.98;;;24.30;44.90;;;;;;6110564;28;83082;-66
2022/04/15 08:01:49;;;;;;;31.52;19.35;;;24.30;44.80;;;;;;6111286;28;84205;-68
2022/04/15 08:04:50;;;;;;;27.10;17.10;;;24.30;45.00;;;;;;6120013;28;83202;-68
2022/04/15 08:07:50;;;;;;;23.27;16.38;;;24.30;45.00;;;;;;6125370;28;82913;-74
2022/04/15 08:10:51;;;;;;;24.10;15.65;;;24.20;45.50;;;;;;6134356;28;82742;-76
2022/04/15 08:13:51;;;;;;;24.83;15.60;;;24.30;45.80;;;;;;6134060;28;84556;-73
2022/04/15 08:16:52;;;;;;;26.73;15.40;;;24.20;45.60;;;;;;6134404;28;83124;-69
2022/04/15 08:19:52;;;;;;;26.42;14.65;;;24.20;45.30;;;;;;6125949;28;82900;-70
2022/04/15 08:22:53;;;;;;;19.88;13.43;;;24.20;45.20;;;;;;6110074;28;83620;-69
2022/04/15 08:25:53;;;;;;;23.80;13.63;;;24.10;45.10;;;;;;6116543;28;83134;-70
2022/04/15 08:28:54;;;;;;;19.95;12.35;;;24.10;45.40;;;;;;6131698;28;88747;-74
2022/04/15 08:31:54;;;;;;;19.75;12.27;;;24.10;45.80;;;;;;6134501;28;83468;-70
2022/04/15 08:34:55;;;;;;;17.70;11.52;;;24.10;45.80;;;;;;6133920;28;83109;-72
2022/04/15 08:37:55;;;;;;;24.45;12.30;;;24.10;45.60;;;;;;6132711;28;84187;-76
2022/04/15 08:40:56;;;;;;;18.58;11.02;;;24.10;45.80;;;;;;6133583;28;83183;-70
2022/04/15 08:43:57;;;;;;;20.65;11.70;;;24.10;45.60;;;;;;6127720;28;83053;-69
2022/04/15 08:46:58;;;;;;;17.73;10.65;;;24.00;45.60;;;;;;6113057;28;83074;-68
2022/04/15 08:49:58;;;;;;;24.25;13.02;;;24.00;45.70;;;;;;6120157;28;83191;-70
2022/04/15 08:52:59;;;;;;;19.73;11.98;;;24.00;46.00;;;;;;6109067;28;84657;-71
2022/04/15 08:55:59;;;;;;;19.33;12.07;;;24.00;45.80;;;;;;6114360;28;85966;-69
2022/04/15 08:59:00;;;;;;;18.48;11.98;;;24.00;46.20;;;;;;6130169;28;83047;-69
2022/04/15 09:02:00;;;;;;;19.60;11.45;;;24.00;46.20;;;;;;6132971;28;84186;-70
2022/04/15 09:05:01;;;;;;;19.73;11.10;;;23.90;45.80;;;;;;6127634;28;82765;-68
2022/04/15 09:08:02;;;;;;;23.83;11.48;;;23.90;45.90;;;;;;6133242;28;83097;-70
2022/04/15 09:11:02;;;;;;;19.20;11.90;;;23.90;46.50;;;;;;6114452;28;83574;-68
2022/04/15 09:14:03;;;;;;;18.08;11.73;;;23.90;46.60;;;;;;6110826;28;83103;-68
2022/04/15 09:17:05;;;;;;;16.77;11.30;;;23.70;46.60;;;;;;6130698;28;85469;-68
2022/04/15 09:20:05;;;;;;;25.52;12.23;;;23.70;46.40;;;;;;6123662;28;82954;-67
2022/04/15 09:23:06;;;;;;;25.30;12.77;;;23.70;47.00;;;;;;6114831;28;84809;-68
2022/04/15 09:26:06;;;;;;;22.90;13.07;;;23.70;47.20;;;;;;6125993;28;83164;-68
2022/04/15 09:29:07;;;;;;;20.33;11.48;;;23.70;46.60;;;;;;6133139;28;83080;-68
2022/04/15 09:32:08;;;;;;;18.98;11.88;;;23.80;47.40;;;;;;6132625;28;83286;-67
2022/04/15 09:35:08;;;;;;;20.88;12.55;;;23.80;47.50;;;;;;6132250;28;82755;-68
2022/04/15 09:38:09;;;;;;;22.90;13.10;;;23.80;48.10;;;;;;6132622;28;84099;-68
2022/04/15 09:41:10;;;;;;;23.40;13.43;;;23.80;48.70;;;;;;6127894;28;83049;-68
2022/04/15 09:44:10;;;;;;;21.90;13.05;;;23.80;48.10;;;;;;6128332;28;83124;-68
2022/04/15 09:47:11;;;;;;;19.77;11.95;;;23.80;48.00;;;;;;6128848;28;83752;-68
2022/04/15 09:50:11;;;;;;;35.88;13.02;;;23.90;48.50;;;;;;6121473;28;83796;-66
2022/04/15 09:53:12;;;;;;;25.30;13.93;;;23.90;48.00;;;;;;6108551;28;83208;-67
2022/04/15 09:56:12;;;;;;;25.52;12.88;;;23.90;48.70;;;;;;6121256;28;83087;-67
2022/04/15 09:59:15;;;;;;;20.15;13.80;;;23.90;48.70;;;;;;6132625;28;83181;-66
2022/04/15 10:02:15;;;;;;;23.80;13.02;;;23.80;48.60;;;;;;6132184;28;83053;-73
2022/04/15 10:05:20;;;;;;;24.83;13.93;;;23.80;49.10;;;;;;6131163;28;82792;-68
2022/04/15 10:08:21;;;;;;;24.73;12.90;;;23.80;49.20;;;;;;6132259;28;83532;-70
2022/04/15 10:11:21;;;;;;;22.17;12.82;;;23.80;49.20;;;;;;6121375;28;83434;-69
2022/04/15 10:14:22;;;;;;;18.42;12.52;;;23.70;49.00;;;;;;6108318;28;83926;-65
2022/04/15 10:17:23;;;;;;;19.48;11.40;;;23.60;49.00;;;;;;6126594;28;83241;-64
2022/04/15 10:20:24;;;;;;;24.95;11.73;;;23.60;49.10;;;;;;6128222;28;83208;-70
2022/04/15 10:23:24;;;;;;;19.15;10.57;;;23.50;49.70;;;;;;6107978;28;83352;-71
2022/04/15 10:26:25;;;;;;;17.42;10.45;;;23.60;49.70;;;;;;6107248;28;83547;-72
2022/04/15 10:29:25;;;;;;;17.85;10.05;;;23.60;49.30;;;;;;6107664;28;82957;-72
2022/04/15 10:32:26;;;;;;;15.57;9.00;;;23.70;49.10;;;;;;6126410;28;84871;-72
2022/04/15 10:35:27;;;;;;;20.00;9.32;;;23.80;48.80;;;;;;6134797;28;83020;-72
2022/04/15 10:38:27;;;;;;;17.15;8.73;;;23.80;48.60;;;;;;6134986;28;80661;-72
2022/04/15 10:41:28;;;;;;;13.48;8.00;;;23.80;48.40;;;;;;6127548;28;80368;-73
2022/04/15 10:44:28;;;;;;;10.55;7.75;;;23.90;48.20;;;;;;6114054;28;80797;-72
2022/04/15 10:47:29;;;;;;;14.20;9.10;;;23.90;48.10;;;;;;6134651;28;82023;-72
2022/04/15 10:50:30;;;;;;;13.23;8.10;;;23.90;47.90;;;;;;6135254;28;80810;-72
2022/04/15 10:53:31;;;;;;;12.18;8.13;;;23.90;47.70;;;;;;6112975;28;81191;-72
2022/04/15 10:56:31;;;;;;;11.05;7.72;;;23.90;47.30;;;;;;6116127;28;81548;-72
2022/04/15 11:02:51;;;;;;;12.10;7.18;;;24.00;47.20;;;;;;6133471;28;80618;-73
2022/04/15 11:05:55;;;;;;;16.98;7.38;;;24.00;47.10;;;;;;6135235;28;80395;-73
2022/04/15 11:08:56;;;;;;;9.48;6.47;;;24.00;46.90;;;;;;6134392;28;81973;-74
2022/04/15 11:11:57;;;;;;;12.75;7.40;;;24.00;46.80;;;;;;6128146;28;80497;-74
2022/04/15 11:14:58;;;;;;;9.85;6.57;;;24.00;46.80;;;;;;6132038;28;80458;-74
2022/04/15 11:17:58;;;;;;;12.48;7.13;;;24.00;46.60;;;;;;6132137;28;82221;-74
2022/04/15 11:20:59;;;;;;;11.15;7.25;;;24.00;46.60;;;;;;6133716;28;81389;-73
2022/04/15 11:24:00;;;;;;;10.77;6.38;;;24.00;46.50;;;;;;6134076;28;80658;-73
2022/04/15 11:27:03;;;;;;;10.98;6.82;;;24.00;46.40;;;;;;6132596;28;80613;-73
2022/04/15 11:30:06;;;;;;;10.48;6.88;;;24.00;46.30;;;;;;6132429;28;80415;-73
2022/04/15 11:33:07;;;;;;;9.82;6.60;;;24.00;46.30;;;;;;6124823;28;81082;-73
2022/04/15 11:36:07;;;;;;;11.52;7.10;;;24.00;46.30;;;;;;6138254;28;81762;-72
2022/04/15 11:39:08;;;;;;;10.90;6.68;;;24.00;46.20;;;;;;6137670;28;80417;-73
2022/04/15 11:42:09;;;;;;;11.38;6.32;;;24.10;46.20;;;;;;6135002;28;80619;-73
2022/04/15 11:45:13;;;;;;;8.43;6.00;;;24.10;46.20;;;;;;6114388;28;80457;-74
2022/04/15 11:48:14;;;;;;;7.68;5.78;;;24.00;46.10;;;;;;6114176;28;81168;-73
2022/04/15 11:51:15;;;;;;;8.93;5.85;;;24.10;46.10;;;;;;6114157;28;80582;-73
2022/04/15 11:54:16;;;;;;;11.20;6.53;;;24.10;46.00;;;;;;6114157;28;80362;-73
2022/04/15 11:57:16;;;;;;;8.68;6.22;;;24.10;45.90;;;;;;6137192;28;80683;-73
2022/04/15 12:00:17;;;;;;;8.55;6.47;;;24.10;45.80;;;;;;6134613;28;80682;-73
2022/04/15 12:03:17;;;;;;;8.95;6.05;;;24.10;45.80;;;;;;6121029;28;80248;-73
2022/04/15 12:06:18;;;;;;;8.40;6.43;;;24.10;45.70;;;;;;6137625;28;80901;-72
2022/04/15 12:09:18;;;;;;;7.53;5.20;;;24.10;45.70;;;;;;6127882;28;80278;-73
2022/04/15 12:12:19;;;;;;;8.35;5.68;;;24.10;45.70;;;;;;6138134;28;80752;-73
2022/04/15 12:15:20;;;;;;;8.75;6.00;;;24.10;45.60;;;;;;6114304;28;80355;-73
2022/04/15 12:18:20;;;;;;;10.13;6.10;;;24.10;45.60;;;;;;6113738;28;80514;-72
2022/04/15 12:21:21;;;;;;;7.90;5.70;;;24.10;45.60;;;;;;6113758;28;80301;-72
2022/04/15 12:24:22;;;;;;;9.70;5.55;;;24.10;45.60;;;;;;6128016;28;80543;-71
2022/04/15 12:27:23;;;;;;;10.15;6.07;;;24.10;45.50;;;;;;6137374;28;80461;-72
2022/04/15 12:30:23;;;;;;;7.20;5.57;;;24.10;45.40;;;;;;6136897;28;80614;-72
2022/04/15 12:33:24;;;;;;;8.75;5.53;;;24.20;45.30;;;;;;6131693;28;80350;-72
2022/04/15 12:36:24;;;;;;;8.13;5.32;;;24.20;45.30;;;;;;6113480;28;80446;-72
2022/04/15 12:39:25;;;;;;;7.43;5.55;;;24.30;45.20;;;;;;6123592;28;81695;-72
2022/04/15 12:42:25;;;;;;;8.98;5.68;;;24.30;45.10;;;;;;6120893;28;80408;-72
2022/04/15 12:45:26;;;;;;;6.35;5.03;;;24.30;45.10;;;;;;6117547;28;81151;-73
2022/04/15 12:48:28;;;;;;;9.68;5.28;;;24.30;45.10;;;;;;6112891;28;81614;-73
2022/04/15 12:51:29;;;;;;;9.13;6.00;;;24.30;45.00;;;;;;6117645;28;81657;-72
2022/04/15 12:54:29;;;;;;;6.47;5.00;;;24.30;45.00;;;;;;6136973;28;80492;-72
2022/04/15 12:57:30;;;;;;;6.00;4.50;;;24.30;45.70;;;;;;6137189;28;80466;-72
2022/04/15 13:00:30;;;;;;;7.13;4.90;;;24.30;45.00;;;;;;6117144;28;83226;-72
2022/04/15 13:03:34;;;;;;;7.45;5.07;;;24.40;45.00;;;;;;6113764;28;80519;-73
2022/04/15 13:06:35;;;;;;;5.82;4.07;;;24.30;44.80;;;;;;6136828;28;80532;-72
2022/04/15 13:09:35;;;;;;;7.65;4.50;;;24.40;44.90;;;;;;6136960;28;80867;-72
2022/04/15 13:12:36;;;;;;;6.95;5.15;;;24.40;44.90;;;;;;6137182;28;81118;-72
2022/04/15 13:15:36;;;;;;;6.75;4.82;;;24.40;44.80;;;;;;6120501;28;81574;-72
2022/04/15 13:18:38;;;;;;;7.22;4.75;;;24.40;44.80;;;;;;6112492;28;80402;-71
2022/04/15 13:21:39;;;;;;;4.43;4.03;;;24.40;44.80;;;;;;6112979;28;80388;-71
2022/04/15 13:24:39;;;;;;;7.68;4.90;;;24.40;44.70;;;;;;6122200;28;81825;-71
2022/04/15 13:27:40;;;;;;;8.38;4.97;;;24.40;44.60;;;;;;6112253;28;82034;-72
2022/04/15 13:30:42;;;;;;;6.85;4.97;;;24.40;44.60;;;;;;6112040;28;81626;-72
2022/04/15 13:33:42;;;;;;;8.23;4.65;;;24.40;44.50;;;;;;6118693;28;81588;-72
2022/04/15 13:36:43;;;;;;;7.25;4.82;;;24.40;44.50;;;;;;6114239;28;81534;-72
2022/04/15 13:39:45;;;;;;;8.20;5.13;;;24.50;44.60;;;;;;6111701;28;81208;-75
2022/04/15 13:42:45;;;;;;;6.82;4.72;;;24.40;44.50;;;;;;6112069;28;80693;-73
2022/04/15 13:45:46;;;;;;;7.30;4.28;;;24.40;44.50;;;;;;6122471;28;81635;-73
2022/04/15 13:48:46;;;;;;;5.25;4.38;;;24.50;44.50;;;;;;6135767;28;80800;-73
2022/04/15 13:51:47;;;;;;;7.75;4.07;;;24.40;44.40;;;;;;6116081;28;80519;-72
2022/04/15 13:58:07;;;;;;;6.10;4.93;;;24.40;44.30;;;;;;6111167;28;81102;-73
2022/04/15 14:01:23;;;;;;;6.10;4.03;;;24.40;44.30;;;;;;6120927;28;80178;-73
2022/04/15 14:04:23;;;;;;;7.45;4.60;;;24.40;44.20;;;;;;6134995;28;83784;-73
2022/04/15 14:07:24;;;;;;;6.13;4.50;;;24.40;44.20;;;;;;6135886;28;80892;-72
2022/04/15 14:10:24;;;;;;;4.68;3.88;;;24.40;44.20;;;;;;6130525;28;80994;-73
2022/04/15 14:13:25;;;;;;;4.63;3.58;;;24.40;44.30;;;;;;6111825;28;80264;-73
2022/04/15 14:16:25;;;;;;;5.22;4.30;;;24.40;44.20;;;;;;6121591;28;80630;-73
2022/04/15 14:19:26;;;;;;;5.13;3.65;;;24.40;44.30;;;;;;6135503;28;80192;-73
2022/04/15 14:22:26;;;;;;;5.25;3.75;;;24.30;44.30;;;;;;6109848;28;81906;-72
2022/04/15 14:25:27;;;;;;;6.93;4.07;;;24.30;44.30;;;;;;6114245;28;80809;-73
2022/04/15 14:28:30;;;;;;;7.22;3.72;;;24.30;44.10;;;;;;6133837;28;80551;-73
2022/04/15 14:31:30;;;;;;;5.25;3.85;;;24.30;44.20;;;;;;6115997;28;80523;-73
2022/04/15 14:34:31;;;;;;;5.45;3.53;;;24.30;44.20;;;;;;6110702;28;81854;-73
2022/04/15 14:37:31;;;;;;;4.78;3.50;;;24.30;44.20;;;;;;6127562;28;83591;-73
2022/04/15 14:40:32;;;;;;;4.38;3.22;;;24.20;44.20;;;;;;6133504;28;80305;-74
2022/04/15 14:43:33;;;;;;;4.25;3.40;;;24.20;44.20;;;;;;6112558;28;80731;-74
2022/04/15 14:46:33;;;;;;;6.05;3.88;;;24.20;44.20;;;;;;6134804;28;80462;-74
2022/04/15 14:49:38;;;;;;;4.80;3.33;;;24.20;44.20;;;;;;6134330;28;80470;-72
2022/04/15 14:52:38;;;;;;;4.00;2.83;;;24.10;44.20;;;;;;6134697;28;80794;-70
2022/04/15 14:55:39;;;;;;;5.78;3.28;;;24.10;44.10;;;;;;6134326;28;80841;-72
2022/04/15 14:58:40;;;;;;;5.90;3.58;;;24.10;44.10;;;;;;6122150;28;80339;-71
2022/04/15 15:01:40;;;;;;;5.88;3.00;;;24.10;44.10;;;;;;6124575;28;81799;-72
2022/04/15 15:04:42;;;;;;;4.55;3.05;;;24.10;44.10;;;;;;6112440;28;80358;-72
2022/04/15 15:07:43;;;;;;;4.30;2.88;;;24.10;44.10;;;;;;6133314;28;80342;-71
2022/04/15 15:10:44;;;;;;;4.95;3.38;;;24.10;44.10;;;;;;6142339;28;81757;-72
2022/04/15 15:13:44;;;;;;;6.18;3.67;;;24.10;44.10;;;;;;6140374;28;81010;-72
2022/04/15 15:16:45;;;;;;;4.38;3.30;;;24.10;44.10;;;;;;6142207;28;81701;-72
2022/04/15 15:19:46;;;;;;;8.05;3.67;;;24.10;44.10;;;;;;6142564;28;80419;-73
2022/04/15 15:22:47;;;;;;;7.82;3.88;;;24.00;44.10;;;;;;6130012;28;80478;-73
2022/04/15 15:32:26;;;;;;;5.10;3.38;;;24.00;44.10;;;;;;6126739;28;80694;-74
2022/04/15 15:35:27;;;;;;;5.78;3.53;;;24.00;44.10;;;;;;6142388;28;80741;-74
2022/04/15 15:38:28;;;;;;;5.93;3.30;;;24.00;44.10;;;;;;6141831;28;81172;-74
2022/04/15 15:41:28;;;;;;;5.25;3.15;;;24.00;44.10;;;;;;6142291;28;80632;-73
2022/04/15 15:44:29;;;;;;;4.85;3.55;;;24.00;44.10;;;;;;6141529;28;87740;-74
2022/04/15 15:47:29;;;;;;;5.72;3.20;;;24.00;44.20;;;;;;6142240;28;80294;-73
2022/04/15 15:50:30;;;;;;;6.00;3.28;;;24.00;44.20;;;;;;6142028;28;80404;-73